createdAt,value
2018-07-20T00:01:14.415Z,101795.53
2018-07-20T00:03:42.056Z,101803.91
2018-07-20T00:06:10.211Z,101805.19
2018-07-20T00:08:38.500Z,101801.27
2018-07-20T00:11:06.435Z,101794.21
2018-07-20T00:13:34.404Z,101788.52
2018-07-20T00:16:02.302Z,101798.18
2018-07-20T00:18:29.925Z,101801.73
2018-07-20T00:20:58.154Z,101793.84
2018-07-20T00:23:26.028Z,101800.45
2018-07-20T00:25:53.689Z,101799.58
2018-07-20T00:28:21.352Z,101792.60
2018-07-20T00:30:49.047Z,101781.63
2018-07-20T00:33:17.235Z,101789.96
2018-07-20T00:35:44.895Z,101791.31
2018-07-20T00:38:12.648Z,101793.16
2018-07-20T00:40:40.306Z,101792.23
2018-07-20T00:43:07.982Z,101787.87
2018-07-20T00:45:35.640Z,101803.73
2018-07-20T00:48:04.008Z,101792.75
2018-07-20T00:50:32.286Z,101805.45
2018-07-20T00:52:59.920Z,101802.81
2018-07-20T00:55:28.118Z,101800.68
2018-07-20T00:57:55.749Z,101794.48
2018-07-20T01:00:23.838Z,101794.03
2018-07-20T01:02:51.939Z,101795.76
2018-07-20T01:05:19.597Z,101803.69
2018-07-20T01:07:47.499Z,101791.83
2018-07-20T01:10:15.673Z,101786.98
2018-07-20T01:12:43.345Z,101790.11
2018-07-20T01:15:11.252Z,101790.59
2018-07-20T01:17:39.174Z,101791.06
2018-07-20T01:20:08.082Z,101782.25
2018-07-20T01:22:35.717Z,101782.66
2018-07-20T01:25:03.873Z,101772.13
2018-07-20T01:27:31.685Z,101769.03
2018-07-20T01:29:59.353Z,101770.88
2018-07-20T01:32:27.040Z,101769.55
2018-07-20T01:34:54.724Z,101765.14
2018-07-20T01:37:22.440Z,101772.23
2018-07-20T01:39:50.076Z,101765.66
2018-07-20T01:42:17.943Z,101767.83
2018-07-20T01:44:45.682Z,101766.98
2018-07-20T01:47:13.345Z,101765.25
2018-07-20T01:49:40.962Z,101765.25
2018-07-20T01:52:08.910Z,101760.85
2018-07-20T01:54:36.834Z,101758.28
2018-07-20T01:57:04.740Z,101754.77
2018-07-20T01:59:32.392Z,101759.17
2018-07-20T02:02:00.131Z,101758.32
2018-07-20T02:04:28.135Z,101760.05
2018-07-20T02:06:55.795Z,101757.88
2018-07-20T02:09:23.488Z,101757.48
2018-07-20T02:11:51.484Z,101756.16
2018-07-20T02:14:19.651Z,101753.55
2018-07-20T02:16:47.305Z,101756.67
2018-07-20T02:19:15.034Z,101754.47
2018-07-20T02:21:42.691Z,101750.47
2018-07-20T02:24:10.639Z,101750.44
2018-07-20T02:26:38.712Z,101749.55
2018-07-20T02:29:06.465Z,101742.95
2018-07-20T02:31:34.133Z,101741.26
2018-07-20T02:34:01.730Z,101744.34
2018-07-20T02:36:29.816Z,101745.63
2018-07-20T02:38:57.471Z,101750.91
2018-07-20T02:41:25.532Z,101746.95
2018-07-20T02:43:53.206Z,101748.30
2018-07-20T02:46:20.840Z,101743.49
2018-07-20T02:48:48.496Z,101737.38
2018-07-20T02:51:16.146Z,101738.77
2018-07-20T02:53:43.797Z,101739.64
2018-07-20T02:56:12.117Z,101740.56
2018-07-20T02:58:39.925Z,101736.19
2018-07-20T03:01:07.541Z,101739.28
2018-07-20T03:03:35.697Z,101735.31
2018-07-20T03:06:03.370Z,101738.43
2018-07-20T03:08:31.051Z,101742.39
2018-07-20T03:10:58.703Z,101743.72
2018-07-20T03:13:26.367Z,101744.56
2018-07-20T03:15:54.039Z,101741.92
2018-07-20T03:18:22.033Z,101735.31
2018-07-20T03:20:49.715Z,101740.16
2018-07-20T03:23:17.516Z,101737.95
2018-07-20T03:25:45.152Z,101738.47
2018-07-20T03:28:12.860Z,101738.03
2018-07-20T03:30:40.594Z,101740.16
2018-07-20T03:33:08.511Z,101734.47
2018-07-20T03:35:36.151Z,101731.83
2018-07-20T03:38:04.605Z,101734.47
2018-07-20T03:40:32.536Z,101730.50
2018-07-20T03:43:00.154Z,101734.47
2018-07-20T03:45:27.852Z,101730.51
2018-07-20T03:47:55.720Z,101728.27
2018-07-20T03:50:23.405Z,101726.06
2018-07-20T03:52:51.040Z,101724.75
2018-07-20T03:55:19.029Z,101725.63
2018-07-20T03:57:47.325Z,101723.03
2018-07-20T04:00:15.259Z,101722.58
2018-07-20T04:02:42.999Z,101720.30
2018-07-20T04:05:10.765Z,101714.47
2018-07-20T04:07:38.401Z,101715.34
2018-07-20T04:10:06.133Z,101713.95
2018-07-20T04:12:33.816Z,101720.52
2018-07-20T04:15:02.242Z,101717.44
2018-07-20T04:17:35.638Z,101715.23
2018-07-20T04:20:03.608Z,101715.53
2018-07-20T04:22:31.341Z,101714.16
2018-07-20T04:24:59.077Z,101716.17
2018-07-20T04:27:27.124Z,101708.53
2018-07-20T04:29:54.784Z,101708.98
2018-07-20T04:32:22.820Z,101705.84
2018-07-20T04:34:50.705Z,101710.70
2018-07-20T04:37:18.376Z,101708.94
2018-07-20T04:39:46.871Z,101717.75
2018-07-20T04:42:14.824Z,101704.97
2018-07-20T04:44:42.549Z,101708.49
2018-07-20T04:47:10.228Z,101707.98
2018-07-20T04:49:37.885Z,101711.39
2018-07-20T04:52:05.825Z,101708.30
2018-07-20T04:54:33.523Z,101706.09
2018-07-20T04:57:01.509Z,101704.78
2018-07-20T04:59:29.380Z,101705.53
2018-07-20T05:01:57.161Z,101704.09
2018-07-20T05:04:25.104Z,101707.30
2018-07-20T05:06:52.751Z,101703.73
2018-07-20T05:09:20.950Z,101707.78
2018-07-20T05:11:49.352Z,101702.09
2018-07-20T05:14:17.736Z,101704.73
2018-07-20T05:16:45.365Z,101703.42
2018-07-20T05:19:13.318Z,101706.46
2018-07-20T05:21:41.436Z,101707.74
2018-07-20T05:24:09.091Z,101714.63
2018-07-20T05:26:36.807Z,101706.62
2018-07-20T05:29:04.459Z,101700.77
2018-07-20T05:31:32.249Z,101697.21
2018-07-20T05:33:59.924Z,101699.01
2018-07-20T05:36:27.558Z,101706.02
2018-07-20T05:38:55.193Z,101709.47
2018-07-20T05:41:22.856Z,101708.11
2018-07-20T05:43:50.877Z,101712.03
2018-07-20T05:46:18.583Z,101708.91
2018-07-20T05:48:46.307Z,101708.30
2018-07-20T05:51:14.231Z,101709.98
2018-07-20T05:53:42.136Z,101712.98
2018-07-20T05:56:09.897Z,101709.33
2018-07-20T05:58:37.734Z,101708.36
2018-07-20T06:01:05.468Z,101711.41
2018-07-20T06:03:33.106Z,101709.16
2018-07-20T06:06:01.096Z,101711.41
2018-07-20T06:08:28.746Z,101713.12
2018-07-20T06:10:56.755Z,101706.88
2018-07-20T06:13:24.417Z,101703.27
2018-07-20T06:15:52.588Z,101702.42
2018-07-20T06:18:20.582Z,101703.88
2018-07-20T06:20:48.184Z,101702.06
2018-07-20T06:23:15.905Z,101705.06
2018-07-20T06:25:43.548Z,101704.91
2018-07-20T06:28:11.937Z,101700.94
2018-07-20T06:30:40.075Z,101699.13
2018-07-20T06:33:08.036Z,101699.52
2018-07-20T06:35:35.693Z,101699.48
2018-07-20T06:38:03.384Z,101700.32
2018-07-20T06:40:31.059Z,101704.73
2018-07-20T06:42:58.766Z,101699.83
2018-07-20T06:45:26.470Z,101707.73
2018-07-20T06:47:54.145Z,101704.52
2018-07-20T06:50:21.772Z,101704.83
2018-07-20T06:52:49.457Z,101706.59
2018-07-20T06:55:17.118Z,101706.16
2018-07-20T06:57:45.441Z,101708.80
2018-07-20T07:00:13.450Z,101710.52
2018-07-20T07:02:41.376Z,101703.86
2018-07-20T07:05:10.205Z,101702.09
2018-07-20T07:07:38.263Z,101709.51
2018-07-20T07:10:06.418Z,101712.55
2018-07-20T07:12:34.295Z,101710.44
2018-07-20T07:15:02.203Z,101716.13
2018-07-20T07:17:30.639Z,101715.28
2018-07-20T07:19:58.284Z,101720.97
2018-07-20T07:22:25.950Z,101717.84
2018-07-20T07:24:53.909Z,101718.73
2018-07-20T07:27:21.582Z,101712.98
2018-07-20T07:29:49.236Z,101708.84
2018-07-20T07:32:16.952Z,101712.28
2018-07-20T07:34:44.865Z,101710.44
2018-07-20T07:37:12.584Z,101706.42
2018-07-20T07:39:40.208Z,101709.82
2018-07-20T07:42:08.711Z,101706.68
2018-07-20T07:44:36.478Z,101711.09
2018-07-20T07:47:04.177Z,101709.20
2018-07-20T07:49:31.904Z,101704.34
2018-07-20T07:51:59.621Z,101704.73
2018-07-20T07:54:27.485Z,101706.06
2018-07-20T07:56:55.574Z,101702.05
2018-07-20T07:59:23.226Z,101697.99
2018-07-20T08:01:51.150Z,101695.30
2018-07-20T08:04:18.914Z,101692.61
2018-07-20T08:06:49.386Z,101692.59
2018-07-20T08:09:17.081Z,101688.52
2018-07-20T08:11:44.729Z,101692.45
2018-07-20T08:14:13.200Z,101693.77
2018-07-20T08:16:41.478Z,101685.34
2018-07-20T08:19:09.330Z,101691.05
2018-07-20T08:21:37.146Z,101685.34
2018-07-20T08:24:04.861Z,101683.58
2018-07-20T08:26:32.602Z,101689.72
2018-07-20T08:29:00.825Z,101680.93
2018-07-20T08:31:28.716Z,101675.59
2018-07-20T08:33:56.767Z,101672.94
2018-07-20T08:36:24.375Z,101665.53
2018-07-20T08:38:52.064Z,101669.16
2018-07-20T08:41:20.738Z,101661.69
2018-07-20T08:43:48.453Z,101661.74
2018-07-20T08:46:16.161Z,101665.28
2018-07-20T08:48:44.147Z,101661.36
2018-07-20T08:51:12.144Z,101666.66
2018-07-20T08:53:40.969Z,101669.70
2018-07-20T08:56:09.013Z,101669.16
2018-07-20T08:58:36.635Z,101653.67
2018-07-20T09:01:04.507Z,101659.44
2018-07-20T09:03:32.413Z,101654.50
2018-07-20T09:06:00.113Z,101658.82
2018-07-20T09:08:27.798Z,101654.45
2018-07-20T09:10:55.774Z,101651.75
2018-07-20T09:13:23.413Z,101651.22
2018-07-20T09:15:51.416Z,101646.80
2018-07-20T09:18:19.584Z,101645.88
2018-07-20T09:20:47.614Z,101648.43
2018-07-20T09:23:15.260Z,101644.02
2018-07-20T09:25:43.104Z,101645.78
2018-07-20T09:28:10.878Z,101649.22
2018-07-20T09:30:39.016Z,101653.20
2018-07-20T09:33:06.669Z,101646.58
2018-07-20T09:35:34.384Z,101646.52
2018-07-20T09:38:02.044Z,101639.02
2018-07-20T09:40:29.649Z,101638.53
2018-07-20T09:42:57.397Z,101640.65
2018-07-20T09:45:25.259Z,101637.50
2018-07-20T09:47:52.892Z,101639.22
2018-07-20T09:50:20.536Z,101632.07
2018-07-20T09:52:48.176Z,101635.15
2018-07-20T09:55:16.238Z,101631.13
2018-07-20T09:57:44.124Z,101635.84
2018-07-20T10:00:11.821Z,101636.23
2018-07-20T10:02:39.504Z,101631.39
2018-07-20T10:05:07.710Z,101627.41
2018-07-20T10:07:35.476Z,101636.14
2018-07-20T10:10:03.152Z,101629.52
2018-07-20T10:12:31.063Z,101627.66
2018-07-20T10:14:58.974Z,101633.73
2018-07-20T10:17:26.614Z,101630.45
2018-07-20T10:19:54.217Z,101625.98
2018-07-20T10:22:22.129Z,101625.49
2018-07-20T10:24:49.740Z,101621.56
2018-07-20T10:27:17.576Z,101617.54
2018-07-20T10:29:45.949Z,101616.50
2018-07-20T10:32:14.019Z,101614.20
2018-07-20T10:34:41.685Z,101611.02
2018-07-20T10:37:09.344Z,101610.52
2018-07-20T10:39:37.679Z,101611.70
2018-07-20T10:42:05.340Z,101609.47
2018-07-20T10:44:32.940Z,101613.34
2018-07-20T10:47:00.996Z,101611.52
2018-07-20T10:49:28.609Z,101608.77
2018-07-20T10:51:56.566Z,101603.37
2018-07-20T10:54:24.769Z,101601.59
2018-07-20T10:56:52.380Z,101594.38
2018-07-20T10:59:20.281Z,101603.16
2018-07-20T11:01:48.736Z,101597.70
2018-07-20T11:04:16.363Z,101594.10
2018-07-20T11:06:44.098Z,101590.86
2018-07-20T11:09:11.937Z,101595.63
2018-07-20T11:11:39.635Z,101589.81
2018-07-20T11:14:07.338Z,101584.37
2018-07-20T11:16:35.210Z,101582.14
2018-07-20T11:19:02.838Z,101579.34
2018-07-20T11:21:31.184Z,101573.93
2018-07-20T11:23:58.994Z,101581.23
2018-07-20T11:26:26.958Z,101578.02
2018-07-20T11:28:54.594Z,101582.72
2018-07-20T11:31:22.326Z,101583.51
2018-07-20T11:33:50.019Z,101575.88
2018-07-20T11:36:17.938Z,101570.95
2018-07-20T11:38:45.548Z,101574.78
2018-07-20T11:41:13.498Z,101568.03
2018-07-20T11:43:41.462Z,101566.10
2018-07-20T11:46:09.464Z,101550.57
2018-07-20T11:48:37.404Z,101557.66
2018-07-20T11:51:05.022Z,101548.71
2018-07-20T11:53:32.665Z,101541.53
2018-07-20T11:56:00.991Z,101541.86
2018-07-20T11:58:29.017Z,101535.98
2018-07-20T12:00:56.678Z,101533.66
2018-07-20T12:03:24.305Z,101536.65
2018-07-20T12:05:52.285Z,101529.02
2018-07-20T12:08:20.245Z,101525.30
2018-07-20T12:10:48.461Z,101521.65
2018-07-20T12:13:16.802Z,101522.31
2018-07-20T12:15:45.523Z,101519.53
2018-07-20T12:18:13.471Z,101515.39
2018-07-20T12:20:41.979Z,101520.51
2018-07-20T12:23:09.643Z,101509.34
2018-07-20T12:25:37.268Z,101510.22
2018-07-20T12:28:04.993Z,101510.22
2018-07-20T12:30:32.625Z,101510.09
2018-07-20T12:33:00.499Z,101503.39
2018-07-20T12:35:28.428Z,101513.01
2018-07-20T12:37:56.302Z,101508.87
2018-07-20T12:40:23.974Z,101502.16
2018-07-20T12:42:51.634Z,101497.98
2018-07-20T12:45:19.525Z,101494.78
2018-07-20T12:47:47.412Z,101494.23
2018-07-20T12:50:15.093Z,101494.55
2018-07-20T12:52:42.753Z,101493.06
2018-07-20T12:55:10.386Z,101497.38
2018-07-20T12:57:38.549Z,101489.76
2018-07-20T13:00:06.329Z,101486.55
2018-07-20T13:02:34.234Z,101488.20
2018-07-20T13:05:01.953Z,101490.23
2018-07-20T13:07:29.926Z,101485.25
2018-07-20T13:09:57.586Z,101485.98
2018-07-20T13:12:25.575Z,101484.49
2018-07-20T13:14:53.530Z,101486.17
2018-07-20T13:17:21.221Z,101484.23
2018-07-20T13:19:48.907Z,101482.77
2018-07-20T13:22:16.885Z,101473.23
2018-07-20T13:24:44.890Z,101482.71
2018-07-20T13:27:13.504Z,101473.17
2018-07-20T13:29:41.691Z,101468.98
2018-07-20T13:32:09.606Z,101466.01
2018-07-20T13:34:37.623Z,101467.62
2018-07-20T13:37:05.481Z,101459.50
2018-07-20T13:39:33.110Z,101456.77
2018-07-20T13:42:00.769Z,101459.75
2018-07-20T13:44:28.726Z,101456.39
2018-07-20T13:46:56.563Z,101453.97
2018-07-20T13:49:24.186Z,101441.79
2018-07-20T13:51:51.877Z,101440.67
2018-07-20T13:54:19.903Z,101441.40
2018-07-20T13:56:47.860Z,101432.71
2018-07-20T13:59:15.828Z,101432.88
2018-07-20T14:01:43.709Z,101439.69
2018-07-20T14:04:11.643Z,101439.05
2018-07-20T14:06:39.231Z,101431.38
2018-07-20T14:09:08.485Z,101430.75
2018-07-20T14:11:36.168Z,101432.39
2018-07-20T14:14:04.159Z,101430.48
2018-07-20T14:16:31.797Z,101426.23
2018-07-20T14:18:59.686Z,101432.66
2018-07-20T14:21:27.690Z,101417.84
2018-07-20T14:23:55.281Z,101419.17
2018-07-20T14:26:22.970Z,101418.00
2018-07-20T14:28:50.569Z,101411.46
2018-07-20T14:31:18.175Z,101416.14
2018-07-20T14:33:46.105Z,101414.55
2018-07-20T14:36:13.733Z,101409.70
2018-07-20T14:38:41.438Z,101409.84
2018-07-20T14:41:09.068Z,101410.78
2018-07-20T14:43:37.534Z,101413.34
2018-07-20T14:46:05.406Z,101412.44
2018-07-20T14:48:33.668Z,101408.55
2018-07-20T14:51:01.307Z,101404.09
2018-07-20T14:53:29.028Z,101405.12
2018-07-20T14:55:56.661Z,101402.12
2018-07-20T14:58:24.330Z,101399.61
2018-07-20T15:00:51.981Z,101395.11
2018-07-20T15:03:20.006Z,101395.84
2018-07-20T15:05:47.630Z,101391.14
2018-07-20T15:08:15.670Z,101395.73
2018-07-20T15:10:44.112Z,101391.39
2018-07-20T15:13:12.021Z,101381.93
2018-07-20T15:15:39.638Z,101389.03
2018-07-20T15:18:07.717Z,101385.77
2018-07-20T15:20:35.429Z,101387.77
2018-07-20T15:23:03.060Z,101381.99
2018-07-20T15:25:30.973Z,101381.91
2018-07-20T15:27:59.071Z,101381.61
2018-07-20T15:30:26.725Z,101383.75
2018-07-20T15:32:54.509Z,101379.32
2018-07-20T15:35:22.729Z,101380.27
2018-07-20T15:37:51.477Z,101383.78
2018-07-20T15:40:19.266Z,101379.13
2018-07-20T15:42:47.095Z,101373.31
2018-07-20T15:45:15.406Z,101372.99
2018-07-20T15:47:43.290Z,101373.77
2018-07-20T15:50:10.970Z,101371.61
2018-07-20T15:53:46.221Z,101369.98
2018-07-20T15:55:06.527Z,101356.12
2018-07-20T15:57:34.375Z,101362.94
2018-07-20T16:00:02.189Z,101359.35
2018-07-20T16:02:30.303Z,101357.51
2018-07-20T16:04:57.944Z,101358.95
2018-07-20T16:07:26.021Z,101347.26
2018-07-20T16:09:53.812Z,101343.77
2018-07-20T16:12:21.814Z,101350.94
2018-07-20T16:14:49.457Z,101350.16
2018-07-20T16:17:17.081Z,101339.70
2018-07-20T16:19:44.699Z,101342.20
2018-07-20T16:22:12.375Z,101333.78
2018-07-20T16:24:40.039Z,101331.98
2018-07-20T16:27:08.214Z,101334.98
2018-07-20T16:29:35.959Z,101330.77
2018-07-20T16:32:03.575Z,101333.06
2018-07-20T16:34:31.241Z,101334.61
2018-07-20T16:36:58.840Z,101325.00
2018-07-20T16:39:26.497Z,101326.73
2018-07-20T16:41:54.108Z,101319.37
2018-07-20T16:44:21.762Z,101318.48
2018-07-20T16:46:49.463Z,101313.60
2018-07-20T16:49:17.420Z,101315.59
2018-07-20T16:51:45.837Z,101312.44
2018-07-20T16:54:13.747Z,101310.36
2018-07-20T16:56:41.621Z,101308.98
2018-07-20T16:59:09.612Z,101308.00
2018-07-20T17:01:37.608Z,101302.13
2018-07-20T17:04:05.205Z,101301.32
2018-07-20T17:06:33.155Z,101302.08
2018-07-20T17:09:00.816Z,101303.99
2018-07-20T17:11:28.539Z,101305.45
2018-07-20T17:13:56.473Z,101314.11
2018-07-20T17:16:24.467Z,101305.92
2018-07-20T17:18:52.126Z,101307.87
2018-07-20T17:21:20.297Z,101301.91
2018-07-20T17:23:48.569Z,101269.08
2018-07-20T17:26:16.189Z,101302.28
2018-07-20T17:28:44.364Z,101299.55
2018-07-20T17:31:11.980Z,101304.23
2018-07-20T17:33:40.478Z,101303.09
2018-07-20T17:36:08.375Z,101310.48
2018-07-20T17:38:36.042Z,101301.48
2018-07-20T17:41:04.070Z,101301.25
2018-07-20T17:43:31.995Z,101311.84
2018-07-20T17:45:59.685Z,101310.47
2018-07-20T17:48:27.943Z,101301.02
2018-07-20T17:50:55.585Z,101307.02
2018-07-20T17:53:23.261Z,101305.32
2018-07-20T17:55:50.954Z,101307.77
2018-07-20T17:58:18.802Z,101305.11
2018-07-20T18:00:46.794Z,101307.13
2018-07-20T18:03:14.749Z,101301.40
2018-07-20T18:05:42.694Z,101300.95
2018-07-20T18:08:10.347Z,101295.92
2018-07-20T18:10:38.262Z,101294.87
2018-07-20T18:13:05.978Z,101293.59
2018-07-20T18:15:33.664Z,101297.54
2018-07-20T18:18:01.635Z,101287.84
2018-07-20T18:20:29.331Z,101288.01
2018-07-20T18:22:57.004Z,101288.09
2018-07-20T18:25:24.676Z,101288.63
2018-07-20T18:27:52.345Z,101284.58
2018-07-20T18:30:20.575Z,101287.83
2018-07-20T18:32:48.445Z,101288.73
2018-07-20T18:35:16.437Z,101285.36
2018-07-20T18:37:44.097Z,101286.83
2018-07-20T18:40:12.433Z,101284.95
2018-07-20T18:42:40.155Z,101289.33
2018-07-20T18:45:08.732Z,101284.16
2018-07-20T18:47:36.525Z,101282.23
2018-07-20T18:50:06.290Z,101288.69
2018-07-20T18:52:34.204Z,101282.09
2018-07-20T18:55:02.730Z,101286.22
2018-07-20T18:57:30.749Z,101291.24
2018-07-20T18:59:58.396Z,101293.85
2018-07-20T19:02:26.074Z,101288.88
2018-07-20T19:04:53.750Z,101287.87
2018-07-20T19:07:21.396Z,101284.23
2018-07-20T19:09:49.383Z,101277.13
2018-07-20T19:12:17.030Z,101278.44
2018-07-20T19:14:44.737Z,101281.56
2018-07-20T19:17:12.470Z,101280.13
2018-07-20T19:19:40.177Z,101282.22
2018-07-20T19:22:08.196Z,101280.66
2018-07-20T19:24:35.876Z,101275.66
2018-07-20T19:27:03.947Z,101280.75
2018-07-20T19:29:32.038Z,101276.64
2018-07-20T19:31:59.940Z,101279.07
2018-07-20T19:34:27.590Z,101281.08
2018-07-20T19:36:55.262Z,101282.67
2018-07-20T19:39:23.276Z,101285.10
2018-07-20T19:41:51.239Z,101290.19
2018-07-20T19:44:18.931Z,101292.61
2018-07-20T19:46:46.553Z,101297.70
2018-07-20T19:49:14.216Z,101298.78
2018-07-20T19:51:42.142Z,101303.83
2018-07-20T19:54:10.088Z,101302.27
2018-07-20T19:56:38.225Z,101303.78
2018-07-20T19:59:05.909Z,101308.85
2018-07-20T20:01:33.586Z,101303.30
2018-07-20T20:04:01.555Z,101289.69
2018-07-20T20:06:29.942Z,101316.11
2018-07-20T20:08:57.616Z,101322.89
2018-07-20T20:11:26.079Z,101319.54
2018-07-20T20:13:53.700Z,101321.01
2018-07-20T20:16:21.329Z,101318.98
2018-07-20T20:18:49.677Z,101319.13
2018-07-20T20:21:17.442Z,101319.30
2018-07-20T20:23:45.641Z,101323.80
2018-07-20T20:26:13.646Z,101325.77
2018-07-20T20:28:41.301Z,101328.94
2018-07-20T20:31:09.272Z,101334.43
2018-07-20T20:33:37.268Z,101332.78
2018-07-20T20:36:05.377Z,101335.13
2018-07-20T20:38:33.314Z,101335.26
2018-07-20T20:41:01.002Z,101330.44
2018-07-20T20:43:29.277Z,101335.36
2018-07-20T20:45:57.205Z,101332.39
2018-07-20T20:48:25.074Z,101337.31
2018-07-20T20:50:52.968Z,101337.00
2018-07-20T20:53:20.817Z,101332.20
2018-07-20T20:55:48.560Z,101328.78
2018-07-20T20:58:16.472Z,101332.83
2018-07-20T21:00:44.151Z,101329.37
2018-07-20T21:03:11.826Z,101334.78
2018-07-20T21:05:40.358Z,101338.83
2018-07-20T21:08:08.162Z,101339.28
2018-07-20T21:10:36.143Z,101340.75
2018-07-20T21:13:03.789Z,101339.91
2018-07-20T21:15:31.914Z,101344.83
2018-07-20T21:17:59.557Z,101349.33
2018-07-20T21:20:27.764Z,101346.29
2018-07-20T21:22:55.561Z,101347.30
2018-07-20T21:25:23.265Z,101345.58
2018-07-20T21:27:51.123Z,101354.94
2018-07-20T21:30:18.853Z,101349.24
2018-07-20T21:32:46.501Z,101351.02
2018-07-20T21:35:14.722Z,101347.98
2018-07-20T21:37:42.405Z,101356.95
2018-07-20T21:40:10.046Z,101354.75
2018-07-20T21:42:37.996Z,101349.89
2018-07-20T21:45:05.673Z,101355.75
2018-07-20T21:47:33.520Z,101358.34
2018-07-20T21:50:01.242Z,101361.06
2018-07-20T21:52:28.950Z,101366.83
2018-07-20T21:54:57.613Z,101366.89
2018-07-20T21:57:25.217Z,101366.50
2018-07-20T21:59:52.918Z,101366.11
2018-07-20T22:02:20.641Z,101369.22
2018-07-20T22:04:48.594Z,101366.66
2018-07-20T22:07:16.884Z,101355.63
2018-07-20T22:09:44.917Z,101359.61
2018-07-20T22:12:12.929Z,101364.53
2018-07-20T22:14:40.605Z,101360.61
2018-07-20T22:17:08.563Z,101362.87
2018-07-20T22:19:36.873Z,101360.67
2018-07-20T22:22:04.511Z,101354.04
2018-07-20T22:24:32.539Z,101357.63
2018-07-20T22:27:00.685Z,101353.78
2018-07-20T22:29:28.369Z,101350.29
2018-07-20T22:31:56.017Z,101345.44
2018-07-20T22:34:23.995Z,101344.66
2018-07-20T22:36:51.642Z,101345.98
2018-07-20T22:39:19.260Z,101346.89
2018-07-20T22:41:47.186Z,101342.52
2018-07-20T22:44:14.813Z,101339.93
2018-07-20T22:46:42.515Z,101338.70
2018-07-20T22:49:10.426Z,101338.28
2018-07-20T22:51:38.170Z,101335.63
2018-07-20T22:54:05.818Z,101336.53
2018-07-20T22:56:33.689Z,101340.12
2018-07-20T22:59:01.326Z,101345.05
2018-07-20T23:01:28.990Z,101342.91
2018-07-20T23:03:57.014Z,101341.19
2018-07-20T23:06:24.662Z,101335.02
2018-07-20T23:08:52.672Z,101335.56
2018-07-20T23:11:20.628Z,101328.54
2018-07-20T23:13:48.771Z,101326.80
2018-07-20T23:16:16.982Z,101336.56
2018-07-20T23:18:45.232Z,101329.12
2018-07-20T23:21:13.151Z,101322.10
2018-07-20T23:23:40.808Z,101323.42
2018-07-20T23:26:08.521Z,101325.69
2018-07-20T23:28:36.380Z,101323.49
2018-07-20T23:31:04.140Z,101322.71
2018-07-20T23:33:32.138Z,101323.16
2018-07-20T23:35:59.813Z,101321.91
2018-07-20T23:38:28.116Z,101326.30
2018-07-20T23:40:56.034Z,101318.41
2018-07-20T23:43:23.666Z,101327.69
2018-07-20T23:45:51.381Z,101320.64
2018-07-20T23:48:19.336Z,101321.58
2018-07-20T23:50:47.050Z,101325.55
2018-07-20T23:53:14.726Z,101321.58
2018-07-20T23:55:42.401Z,101320.80
2018-07-20T23:58:10.127Z,101324.84
